sensor_id;sensor_type;location;lat;lon;timestamp;temperature;humidity
2409;DHT22;8463;48.094;7.970;2023-01-01T00:00:51;16.80;8.40
2409;DHT22;8463;48.094;7.970;2023-01-01T00:03:17;16.70;8.70
2409;DHT22;8463;48.094;7.970;2023-01-01T00:05:42;16.60;9.10
2409;DHT22;8463;48.094;7.970;2023-01-01T00:08:08;16.60;9.50
2409;DHT22;8463;48.094;7.970;2023-01-01T00:10:33;16.60;9.60
2409;DHT22;8463;48.094;7.970;2023-01-01T00:12:59;16.60;9.80
2409;DHT22;8463;48.094;7.970;2023-01-01T00:15:26;16.50;10.10
2409;DHT22;8463;48.094;7.970;2023-01-01T00:17:52;16.40;10.40
2409;DHT22;8463;48.094;7.970;2023-01-01T00:20:20;16.30;11.20
2409;DHT22;8463;48.094;7.970;2023-01-01T00:22:46;16.30;11.70
2409;DHT22;8463;48.094;7.970;2023-01-01T00:25:11;16.40;11.20
2409;DHT22;8463;48.094;7.970;2023-01-01T00:27:42;16.40;11.50
2409;DHT22;8463;48.094;7.970;2023-01-01T00:30:09;16.30;11.90
2409;DHT22;8463;48.094;7.970;2023-01-01T00:32:35;16.40;11.20
2409;DHT22;8463;48.094;7.970;2023-01-01T00:35:00;16.30;11.80
2409;DHT22;8463;48.094;7.970;2023-01-01T00:37:27;16.20;12.20
2409;DHT22;8463;48.094;7.970;2023-01-01T00:39:52;16.20;12.50
2409;DHT22;8463;48.094;7.970;2023-01-01T00:42:18;16.20;12.60
2409;DHT22;8463;48.094;7.970;2023-01-01T00:44:44;16.20;12.90
2409;DHT22;8463;48.094;7.970;2023-01-01T00:47:10;16.10;13.00
2409;DHT22;8463;48.094;7.970;2023-01-01T00:49:35;16.00;13.60
2409;DHT22;8463;48.094;7.970;2023-01-01T00:52:01;16.00;13.40
2409;DHT22;8463;48.094;7.970;2023-01-01T00:54:26;16.00;13.70
2409;DHT22;8463;48.094;7.970;2023-01-01T00:56:52;15.90;14.20
2409;DHT22;8463;48.094;7.970;2023-01-01T00:59:18;16.00;13.60
2409;DHT22;8463;48.094;7.970;2023-01-01T01:01:43;16.00;13.90
2409;DHT22;8463;48.094;7.970;2023-01-01T01:04:09;15.90;14.40
2409;DHT22;8463;48.094;7.970;2023-01-01T01:06:34;15.80;14.70
2409;DHT22;8463;48.094;7.970;2023-01-01T01:09:00;15.70;15.20
2409;DHT22;8463;48.094;7.970;2023-01-01T01:11:26;15.60;16.00
2409;DHT22;8463;48.094;7.970;2023-01-01T01:13:54;15.60;16.20
2409;DHT22;8463;48.094;7.970;2023-01-01T01:16:25;15.50;16.40
2409;DHT22;8463;48.094;7.970;2023-01-01T01:18:53;15.50;16.70
2409;DHT22;8463;48.094;7.970;2023-01-01T01:21:21;15.40;17.20
2409;DHT22;8463;48.094;7.970;2023-01-01T01:23:48;15.30;17.90
2409;DHT22;8463;48.094;7.970;2023-01-01T01:26:20;15.30;18.20
2409;DHT22;8463;48.094;7.970;2023-01-01T01:28:46;15.30;18.30
2409;DHT22;8463;48.094;7.970;2023-01-01T01:31:14;15.30;18.30
2409;DHT22;8463;48.094;7.970;2023-01-01T01:33:42;15.20;18.30
2409;DHT22;8463;48.094;7.970;2023-01-01T01:36:09;15.20;18.30
2409;DHT22;8463;48.094;7.970;2023-01-01T01:38:35;15.20;18.50
2409;DHT22;8463;48.094;7.970;2023-01-01T01:41:00;15.20;19.00
2409;DHT22;8463;48.094;7.970;2023-01-01T01:49:11;14.90;20.60
2409;DHT22;8463;48.094;7.970;2023-01-01T01:51:40;14.90;20.90
2409;DHT22;8463;48.094;7.970;2023-01-01T01:54:11;14.80;21.70
2409;DHT22;8463;48.094;7.970;2023-01-01T01:56:50;14.80;21.70
2409;DHT22;8463;48.094;7.970;2023-01-01T01:59:18;14.80;21.70
2409;DHT22;8463;48.094;7.970;2023-01-01T02:01:44;14.80;21.70
2409;DHT22;8463;48.094;7.970;2023-01-01T02:04:10;14.60;22.20
2409;DHT22;8463;48.094;7.970;2023-01-01T02:06:38;14.40;23.10
2409;DHT22;8463;48.094;7.970;2023-01-01T02:09:05;14.40;23.20
2409;DHT22;8463;48.094;7.970;2023-01-01T02:11:32;14.20;23.70
2409;DHT22;8463;48.094;7.970;2023-01-01T02:13:59;14.30;23.70
2409;DHT22;8463;48.094;7.970;2023-01-01T02:19:23;14.60;22.40
2409;DHT22;8463;48.094;7.970;2023-01-01T02:22:05;14.50;23.60
2409;DHT22;8463;48.094;7.970;2023-01-01T02:27:26;14.20;23.90
2409;DHT22;8463;48.094;7.970;2023-01-01T02:29:59;14.10;24.80
2409;DHT22;8463;48.094;7.970;2023-01-01T02:32:53;14.00;24.90
2409;DHT22;8463;48.094;7.970;2023-01-01T02:35:22;14.10;24.30
2409;DHT22;8463;48.094;7.970;2023-01-01T02:38:34;14.10;24.60
2409;DHT22;8463;48.094;7.970;2023-01-01T02:41:15;13.80;26.20
2409;DHT22;8463;48.094;7.970;2023-01-01T02:43:44;13.70;26.70
2409;DHT22;8463;48.094;7.970;2023-01-01T02:46:16;14.00;25.30
2409;DHT22;8463;48.094;7.970;2023-01-01T02:48:47;14.40;23.80
2409;DHT22;8463;48.094;7.970;2023-01-01T02:54:28;14.60;22.00
2409;DHT22;8463;48.094;7.970;2023-01-01T02:59:33;14.70;21.60
2409;DHT22;8463;48.094;7.970;2023-01-01T03:05:19;14.60;21.60
2409;DHT22;8463;48.094;7.970;2023-01-01T03:08:09;14.50;22.00
2409;DHT22;8463;48.094;7.970;2023-01-01T03:16:04;14.10;24.20
2409;DHT22;8463;48.094;7.970;2023-01-01T03:18:38;14.10;24.10
2409;DHT22;8463;48.094;7.970;2023-01-01T03:21:06;14.00;24.90
2409;DHT22;8463;48.094;7.970;2023-01-01T03:23:36;13.90;25.50
2409;DHT22;8463;48.094;7.970;2023-01-01T03:26:07;13.90;25.60
2409;DHT22;8463;48.094;7.970;2023-01-01T03:28:38;13.70;25.70
2409;DHT22;8463;48.094;7.970;2023-01-01T03:31:04;13.60;26.90
2409;DHT22;8463;48.094;7.970;2023-01-01T03:33:46;13.40;27.50
2409;DHT22;8463;48.094;7.970;2023-01-01T03:36:25;13.20;28.00
2409;DHT22;8463;48.094;7.970;2023-01-01T03:39:03;13.00;29.10
2409;DHT22;8463;48.094;7.970;2023-01-01T03:41:43;12.90;30.00
2409;DHT22;8463;48.094;7.970;2023-01-01T03:44:33;12.90;30.40
2409;DHT22;8463;48.094;7.970;2023-01-01T03:46:59;12.80;30.70
2409;DHT22;8463;48.094;7.970;2023-01-01T03:49:26;12.80;30.80
2409;DHT22;8463;48.094;7.970;2023-01-01T03:57:15;12.90;30.30
2409;DHT22;8463;48.094;7.970;2023-01-01T04:00:04;12.90;29.90
2409;DHT22;8463;48.094;7.970;2023-01-01T04:02:36;12.90;29.90
2409;DHT22;8463;48.094;7.970;2023-01-01T04:05:06;12.80;30.00
2409;DHT22;8463;48.094;7.970;2023-01-01T04:07:34;12.70;30.40
2409;DHT22;8463;48.094;7.970;2023-01-01T04:10:01;12.60;31.50
2409;DHT22;8463;48.094;7.970;2023-01-01T04:12:28;12.60;31.50
2409;DHT22;8463;48.094;7.970;2023-01-01T04:14:54;12.50;32.70
2409;DHT22;8463;48.094;7.970;2023-01-01T04:17:20;12.50;32.40
2409;DHT22;8463;48.094;7.970;2023-01-01T04:19:46;12.40;32.20
2409;DHT22;8463;48.094;7.970;2023-01-01T04:22:14;12.40;31.90
2409;DHT22;8463;48.094;7.970;2023-01-01T04:24:39;12.40;32.20
2409;DHT22;8463;48.094;7.970;2023-01-01T04:27:05;12.40;33.20
2409;DHT22;8463;48.094;7.970;2023-01-01T04:29:30;12.40;32.30
2409;DHT22;8463;48.094;7.970;2023-01-01T04:31:56;12.30;33.00
2409;DHT22;8463;48.094;7.970;2023-01-01T04:34:22;12.40;33.00
2409;DHT22;8463;48.094;7.970;2023-01-01T04:36:48;12.40;32.60
2409;DHT22;8463;48.094;7.970;2023-01-01T04:39:13;12.30;32.70
2409;DHT22;8463;48.094;7.970;2023-01-01T04:41:39;12.40;32.60
2409;DHT22;8463;48.094;7.970;2023-01-01T04:44:04;12.40;32.00
2409;DHT22;8463;48.094;7.970;2023-01-01T04:46:30;12.40;32.60
2409;DHT22;8463;48.094;7.970;2023-01-01T04:49:01;12.50;31.50
2409;DHT22;8463;48.094;7.970;2023-01-01T04:51:27;12.50;31.00
2409;DHT22;8463;48.094;7.970;2023-01-01T04:53:52;12.60;30.80
2409;DHT22;8463;48.094;7.970;2023-01-01T04:56:20;12.50;31.10
2409;DHT22;8463;48.094;7.970;2023-01-01T04:58:46;12.40;31.00
2409;DHT22;8463;48.094;7.970;2023-01-01T05:01:20;12.30;31.40
2409;DHT22;8463;48.094;7.970;2023-01-01T05:03:47;12.40;31.90
2409;DHT22;8463;48.094;7.970;2023-01-01T05:06:14;12.40;32.00
2409;DHT22;8463;48.094;7.970;2023-01-01T05:08:42;12.30;31.60
2409;DHT22;8463;48.094;7.970;2023-01-01T05:11:17;12.40;32.80
2409;DHT22;8463;48.094;7.970;2023-01-01T05:13:44;12.20;32.50
2409;DHT22;8463;48.094;7.970;2023-01-01T05:16:22;12.20;32.60
2409;DHT22;8463;48.094;7.970;2023-01-01T05:18:48;12.10;32.60
2409;DHT22;8463;48.094;7.970;2023-01-01T05:21:25;12.10;33.90
2409;DHT22;8463;48.094;7.970;2023-01-01T05:23:55;12.10;33.40
2409;DHT22;8463;48.094;7.970;2023-01-01T05:26:23;12.10;33.40
2409;DHT22;8463;48.094;7.970;2023-01-01T05:28:50;12.10;33.30
2409;DHT22;8463;48.094;7.970;2023-01-01T05:31:18;12.10;33.30
2409;DHT22;8463;48.094;7.970;2023-01-01T05:33:44;12.10;33.60
2409;DHT22;8463;48.094;7.970;2023-01-01T05:36:17;12.10;33.70
2409;DHT22;8463;48.094;7.970;2023-01-01T05:38:43;12.10;33.50
2409;DHT22;8463;48.094;7.970;2023-01-01T05:41:11;12.00;33.60
2409;DHT22;8463;48.094;7.970;2023-01-01T05:43:37;12.10;33.60
2409;DHT22;8463;48.094;7.970;2023-01-01T05:46:05;12.10;33.50
2409;DHT22;8463;48.094;7.970;2023-01-01T05:48:31;12.10;33.80
2409;DHT22;8463;48.094;7.970;2023-01-01T05:51:09;12.10;33.60
2409;DHT22;8463;48.094;7.970;2023-01-01T05:53:35;12.00;33.70
2409;DHT22;8463;48.094;7.970;2023-01-01T05:56:01;12.00;33.50
2409;DHT22;8463;48.094;7.970;2023-01-01T05:58:28;12.10;33.50
2409;DHT22;8463;48.094;7.970;2023-01-01T06:00:55;12.00;33.70
2409;DHT22;8463;48.094;7.970;2023-01-01T06:03:21;12.00;33.30
2409;DHT22;8463;48.094;7.970;2023-01-01T06:05:47;12.00;33.20
2409;DHT22;8463;48.094;7.970;2023-01-01T06:08:12;11.90;33.40
2409;DHT22;8463;48.094;7.970;2023-01-01T06:10:38;11.80;33.40
2409;DHT22;8463;48.094;7.970;2023-01-01T06:13:04;11.80;33.90
2409;DHT22;8463;48.094;7.970;2023-01-01T06:15:30;11.70;34.40
2409;DHT22;8463;48.094;7.970;2023-01-01T06:17:57;11.70;34.30
2409;DHT22;8463;48.094;7.970;2023-01-01T06:20:23;11.70;34.80
2409;DHT22;8463;48.094;7.970;2023-01-01T06:22:48;11.70;34.00
2409;DHT22;8463;48.094;7.970;2023-01-01T06:25:14;11.70;35.00
2409;DHT22;8463;48.094;7.970;2023-01-01T06:27:40;11.60;34.40
2409;DHT22;8463;48.094;7.970;2023-01-01T06:30:06;11.60;35.10
2409;DHT22;8463;48.094;7.970;2023-01-01T06:32:33;11.60;35.20
2409;DHT22;8463;48.094;7.970;2023-01-01T06:35:01;11.60;34.50
2409;DHT22;8463;48.094;7.970;2023-01-01T06:37:27;11.50;35.10
2409;DHT22;8463;48.094;7.970;2023-01-01T06:39:53;11.50;35.10
2409;DHT22;8463;48.094;7.970;2023-01-01T06:42:18;11.50;35.10
2409;DHT22;8463;48.094;7.970;2023-01-01T06:44:44;11.40;35.00
2409;DHT22;8463;48.094;7.970;2023-01-01T06:47:12;11.40;36.20
2409;DHT22;8463;48.094;7.970;2023-01-01T06:49:38;11.40;35.50
2409;DHT22;8463;48.094;7.970;2023-01-01T06:52:03;11.30;36.80
2409;DHT22;8463;48.094;7.970;2023-01-01T06:54:29;11.40;36.80
2409;DHT22;8463;48.094;7.970;2023-01-01T06:56:54;11.60;34.60
2409;DHT22;8463;48.094;7.970;2023-01-01T06:59:20;11.70;33.40
2409;DHT22;8463;48.094;7.970;2023-01-01T07:01:45;11.80;32.30
2409;DHT22;8463;48.094;7.970;2023-01-01T07:04:13;11.80;31.70
2409;DHT22;8463;48.094;7.970;2023-01-01T07:06:40;11.80;31.40
2409;DHT22;8463;48.094;7.970;2023-01-01T07:09:07;11.70;31.70
2409;DHT22;8463;48.094;7.970;2023-01-01T07:11:34;11.70;32.70
2409;DHT22;8463;48.094;7.970;2023-01-01T07:14:00;11.70;33.10
2409;DHT22;8463;48.094;7.970;2023-01-01T07:16:28;11.60;33.40
2409;DHT22;8463;48.094;7.970;2023-01-01T07:18:54;11.60;33.80
2409;DHT22;8463;48.094;7.970;2023-01-01T07:21:26;11.40;34.80
2409;DHT22;8463;48.094;7.970;2023-01-01T07:23:53;11.40;35.00
2409;DHT22;8463;48.094;7.970;2023-01-01T07:26:22;11.30;34.90
2409;DHT22;8463;48.094;7.970;2023-01-01T07:28:47;11.30;34.90
2409;DHT22;8463;48.094;7.970;2023-01-01T07:31:13;11.40;35.00
2409;DHT22;8463;48.094;7.970;2023-01-01T07:33:39;11.40;35.00
2409;DHT22;8463;48.094;7.970;2023-01-01T07:36:04;11.40;35.00
2409;DHT22;8463;48.094;7.970;2023-01-01T07:38:30;11.30;34.90
2409;DHT22;8463;48.094;7.970;2023-01-01T07:40:56;11.30;34.90
2409;DHT22;8463;48.094;7.970;2023-01-01T07:43:21;11.30;34.90
2409;DHT22;8463;48.094;7.970;2023-01-01T07:45:50;11.20;34.80
2409;DHT22;8463;48.094;7.970;2023-01-01T07:48:15;11.20;34.80
2409;DHT22;8463;48.094;7.970;2023-01-01T07:50:42;11.20;34.80
2409;DHT22;8463;48.094;7.970;2023-01-01T07:53:08;11.30;34.90
2409;DHT22;8463;48.094;7.970;2023-01-01T07:55:34;11.20;34.80
2409;DHT22;8463;48.094;7.970;2023-01-01T07:57:59;11.20;34.80
2409;DHT22;8463;48.094;7.970;2023-01-01T08:00:25;11.20;36.10
2409;DHT22;8463;48.094;7.970;2023-01-01T08:02:51;11.20;35.90
2409;DHT22;8463;48.094;7.970;2023-01-01T08:05:16;11.00;36.10
2409;DHT22;8463;48.094;7.970;2023-01-01T08:07:47;11.00;36.60
2409;DHT22;8463;48.094;7.970;2023-01-01T08:10:14;10.90;37.30
2409;DHT22;8463;48.094;7.970;2023-01-01T08:12:40;10.80;38.00
2409;DHT22;8463;48.094;7.970;2023-01-01T08:15:06;10.80;38.40
2409;DHT22;8463;48.094;7.970;2023-01-01T08:17:32;10.90;37.80
2409;DHT22;8463;48.094;7.970;2023-01-01T08:19:57;11.30;34.90
2409;DHT22;8463;48.094;7.970;2023-01-01T08:22:36;11.40;35.00
2409;DHT22;8463;48.094;7.970;2023-01-01T08:25:10;11.50;35.10
2409;DHT22;8463;48.094;7.970;2023-01-01T08:27:36;11.50;35.10
2409;DHT22;8463;48.094;7.970;2023-01-01T08:30:02;11.50;35.90
2409;DHT22;8463;48.094;7.970;2023-01-01T08:32:28;11.50;36.30
2409;DHT22;8463;48.094;7.970;2023-01-01T08:34:54;11.50;36.00
2409;DHT22;8463;48.094;7.970;2023-01-01T08:37:20;11.50;36.10
2409;DHT22;8463;48.094;7.970;2023-01-01T08:39:51;11.50;35.40
2409;DHT22;8463;48.094;7.970;2023-01-01T08:45:03;11.70;35.70
2409;DHT22;8463;48.094;7.970;2023-01-01T08:47:29;11.70;35.30
2409;DHT22;8463;48.094;7.970;2023-01-01T08:49:54;11.60;35.20
2409;DHT22;8463;48.094;7.970;2023-01-01T08:52:23;11.80;35.40
2409;DHT22;8463;48.094;7.970;2023-01-01T08:54:48;11.80;35.40
2409;DHT22;8463;48.094;7.970;2023-01-01T08:57:14;11.90;35.40
2409;DHT22;8463;48.094;7.970;2023-01-01T08:59:39;11.90;35.40
2409;DHT22;8463;48.094;7.970;2023-01-01T09:02:05;12.00;34.70
2409;DHT22;8463;48.094;7.970;2023-01-01T09:04:31;12.00;34.80
2409;DHT22;8463;48.094;7.970;2023-01-01T09:06:56;12.10;35.40
2409;DHT22;8463;48.094;7.970;2023-01-01T09:09:22;12.10;33.60
2409;DHT22;8463;48.094;7.970;2023-01-01T09:11:53;12.00;33.80
2409;DHT22;8463;48.094;7.970;2023-01-01T09:14:20;12.00;33.70
2409;DHT22;8463;48.094;7.970;2023-01-01T09:16:47;12.00;34.00
2409;DHT22;8463;48.094;7.970;2023-01-01T09:19:13;12.10;34.40
2409;DHT22;8463;48.094;7.970;2023-01-01T09:21:38;12.10;33.80
2409;DHT22;8463;48.094;7.970;2023-01-01T09:24:04;12.20;33.60
2409;DHT22;8463;48.094;7.970;2023-01-01T09:26:30;12.30;33.70
2409;DHT22;8463;48.094;7.970;2023-01-01T09:28:56;12.50;33.40
2409;DHT22;8463;48.094;7.970;2023-01-01T09:31:22;12.60;33.20
2409;DHT22;8463;48.094;7.970;2023-01-01T09:33:47;12.70;33.10
2409;DHT22;8463;48.094;7.970;2023-01-01T09:39:00;13.00;31.90
2409;DHT22;8463;48.094;7.970;2023-01-01T09:49:49;13.80;28.50
2409;DHT22;8463;48.094;7.970;2023-01-01T09:52:16;14.00;27.90
2409;DHT22;8463;48.094;7.970;2023-01-01T09:54:58;14.10;28.00
2409;DHT22;8463;48.094;7.970;2023-01-01T09:57:30;14.30;26.20
2409;DHT22;8463;48.094;7.970;2023-01-01T09:59:57;14.50;25.40
2409;DHT22;8463;48.094;7.970;2023-01-01T10:07:49;15.10;24.90
2409;DHT22;8463;48.094;7.970;2023-01-01T10:13:23;15.50;23.20
2409;DHT22;8463;48.094;7.970;2023-01-01T10:16:03;15.70;22.40
2409;DHT22;8463;48.094;7.970;2023-01-01T10:18:32;15.90;20.50
2409;DHT22;8463;48.094;7.970;2023-01-01T10:21:12;16.10;20.30
2409;DHT22;8463;48.094;7.970;2023-01-01T10:23:43;16.30;19.20
2409;DHT22;8463;48.094;7.970;2023-01-01T10:26:16;16.50;18.50
2409;DHT22;8463;48.094;7.970;2023-01-01T10:31:24;16.80;15.50
2409;DHT22;8463;48.094;7.970;2023-01-01T10:33:50;16.90;12.70
2409;DHT22;8463;48.094;7.970;2023-01-01T10:36:18;17.00;8.30
2409;DHT22;8463;48.094;7.970;2023-01-01T10:38:47;17.00;7.70
2409;DHT22;8463;48.094;7.970;2023-01-01T10:41:15;17.00;5.70
2409;DHT22;8463;48.094;7.970;2023-01-01T10:43:42;17.10;2.40
2409;DHT22;8463;48.094;7.970;2023-01-01T10:46:14;17.20;2.00
2409;DHT22;8463;48.094;7.970;2023-01-01T10:49:04;17.30;1.00
2409;DHT22;8463;48.094;7.970;2023-01-01T10:51:30;17.40;1.00
2409;DHT22;8463;48.094;7.970;2023-01-01T10:53:56;17.60;1.00
2409;DHT22;8463;48.094;7.970;2023-01-01T10:56:23;17.80;1.00
2409;DHT22;8463;48.094;7.970;2023-01-01T10:58:54;18.10;1.00
2409;DHT22;8463;48.094;7.970;2023-01-01T11:01:24;18.10;1.00
2409;DHT22;8463;48.094;7.970;2023-01-01T11:06:38;18.30;1.00
2409;DHT22;8463;48.094;7.970;2023-01-01T11:09:26;18.30;1.00
2409;DHT22;8463;48.094;7.970;2023-01-01T11:12:06;18.40;1.00
2409;DHT22;8463;48.094;7.970;2023-01-01T11:14:42;18.40;1.00
2409;DHT22;8463;48.094;7.970;2023-01-01T11:17:23;18.40;1.00
2409;DHT22;8463;48.094;7.970;2023-01-01T11:19:50;18.20;1.00
2409;DHT22;8463;48.094;7.970;2023-01-01T11:25:22;18.40;1.00
2409;DHT22;8463;48.094;7.970;2023-01-01T11:27:50;18.70;1.00
2409;DHT22;8463;48.094;7.970;2023-01-01T11:32:47;19.00;1.00
2409;DHT22;8463;48.094;7.970;2023-01-01T11:35:21;19.10;1.00
2409;DHT22;8463;48.094;7.970;2023-01-01T11:37:49;19.10;1.00
2409;DHT22;8463;48.094;7.970;2023-01-01T11:40:32;19.20;1.00
2409;DHT22;8463;48.094;7.970;2023-01-01T11:43:01;19.20;1.00
2409;DHT22;8463;48.094;7.970;2023-01-01T11:45:37;19.30;1.00
2409;DHT22;8463;48.094;7.970;2023-01-01T11:48:13;19.40;1.00
2409;DHT22;8463;48.094;7.970;2023-01-01T11:50:47;19.30;1.00
2409;DHT22;8463;48.094;7.970;2023-01-01T12:01:31;19.60;1.00
2409;DHT22;8463;48.094;7.970;2023-01-01T12:04:53;19.60;1.00
2409;DHT22;8463;48.094;7.970;2023-01-01T12:07:18;19.60;1.00
2409;DHT22;8463;48.094;7.970;2023-01-01T12:09:57;19.80;1.00
2409;DHT22;8463;48.094;7.970;2023-01-01T12:12:47;19.90;1.00
2409;DHT22;8463;48.094;7.970;2023-01-01T12:15:30;20.00;1.00
2409;DHT22;8463;48.094;7.970;2023-01-01T12:18:23;20.10;1.00
2409;DHT22;8463;48.094;7.970;2023-01-01T12:20:55;20.20;1.00
2409;DHT22;8463;48.094;7.970;2023-01-01T12:23:22;20.20;1.00
2409;DHT22;8463;48.094;7.970;2023-01-01T12:25:56;19.90;1.00
2409;DHT22;8463;48.094;7.970;2023-01-01T12:31:48;19.50;1.00
2409;DHT22;8463;48.094;7.970;2023-01-01T12:34:18;19.40;1.00
2409;DHT22;8463;48.094;7.970;2023-01-01T12:40:10;19.10;1.00
2409;DHT22;8463;48.094;7.970;2023-01-01T12:56:42;19.20;1.00
2409;DHT22;8463;48.094;7.970;2023-01-01T12:59:27;19.30;1.00
2409;DHT22;8463;48.094;7.970;2023-01-01T13:01:56;19.20;1.00
2409;DHT22;8463;48.094;7.970;2023-01-01T13:04:23;19.10;1.00
2409;DHT22;8463;48.094;7.970;2023-01-01T13:06:59;19.00;1.00
2409;DHT22;8463;48.094;7.970;2023-01-01T13:09:33;19.20;1.00
2409;DHT22;8463;48.094;7.970;2023-01-01T13:12:05;19.20;1.00
2409;DHT22;8463;48.094;7.970;2023-01-01T13:14:45;19.30;1.00
2409;DHT22;8463;48.094;7.970;2023-01-01T13:17:18;19.40;1.00
2409;DHT22;8463;48.094;7.970;2023-01-01T13:19:44;19.40;1.00
2409;DHT22;8463;48.094;7.970;2023-01-01T13:33:28;19.60;1.00
2409;DHT22;8463;48.094;7.970;2023-01-01T13:39:02;19.70;1.00
2409;DHT22;8463;48.094;7.970;2023-01-01T13:41:43;19.50;1.00
2409;DHT22;8463;48.094;7.970;2023-01-01T13:52:27;19.40;1.00
2409;DHT22;8463;48.094;7.970;2023-01-01T14:01:14;19.50;1.00
2409;DHT22;8463;48.094;7.970;2023-01-01T14:03:46;19.50;1.00
2409;DHT22;8463;48.094;7.970;2023-01-01T14:06:19;19.40;1.00
2409;DHT22;8463;48.094;7.970;2023-01-01T14:09:06;19.20;1.00
2409;DHT22;8463;48.094;7.970;2023-01-01T14:11:31;19.00;1.00
2409;DHT22;8463;48.094;7.970;2023-01-01T14:13:57;18.80;1.00
2409;DHT22;8463;48.094;7.970;2023-01-01T14:16:24;18.60;1.00
2409;DHT22;8463;48.094;7.970;2023-01-01T14:18:53;18.50;1.00
2409;DHT22;8463;48.094;7.970;2023-01-01T14:21:22;18.50;1.00
2409;DHT22;8463;48.094;7.970;2023-01-01T14:23:53;18.40;1.00
2409;DHT22;8463;48.094;7.970;2023-01-01T14:26:22;18.40;1.00
2409;DHT22;8463;48.094;7.970;2023-01-01T14:28:53;18.40;1.00
2409;DHT22;8463;48.094;7.970;2023-01-01T14:31:21;18.30;1.00
2409;DHT22;8463;48.094;7.970;2023-01-01T14:33:48;18.30;1.00
2409;DHT22;8463;48.094;7.970;2023-01-01T14:36:26;18.30;1.00
2409;DHT22;8463;48.094;7.970;2023-01-01T14:38:54;18.30;1.00
2409;DHT22;8463;48.094;7.970;2023-01-01T14:43:57;18.30;1.00
2409;DHT22;8463;48.094;7.970;2023-01-01T14:46:27;18.40;1.00
2409;DHT22;8463;48.094;7.970;2023-01-01T14:48:59;18.20;1.00
2409;DHT22;8463;48.094;7.970;2023-01-01T14:51:30;18.10;1.00
2409;DHT22;8463;48.094;7.970;2023-01-01T14:54:01;18.00;1.00
2409;DHT22;8463;48.094;7.970;2023-01-01T14:56:30;17.90;1.00
2409;DHT22;8463;48.094;7.970;2023-01-01T14:59:32;17.60;2.40
2409;DHT22;8463;48.094;7.970;2023-01-01T15:02:20;17.00;5.50
2409;DHT22;8463;48.094;7.970;2023-01-01T15:04:46;16.70;7.70
2409;DHT22;8463;48.094;7.970;2023-01-01T15:07:24;16.60;8.80
2409;DHT22;8463;48.094;7.970;2023-01-01T15:09:51;16.30;8.20
2409;DHT22;8463;48.094;7.970;2023-01-01T15:12:18;16.20;9.00
2409;DHT22;8463;48.094;7.970;2023-01-01T15:14:46;16.30;9.00
2409;DHT22;8463;48.094;7.970;2023-01-01T15:17:14;16.20;10.50
2409;DHT22;8463;48.094;7.970;2023-01-01T15:19:42;16.20;11.10
2409;DHT22;8463;48.094;7.970;2023-01-01T15:22:28;16.20;12.40
2409;DHT22;8463;48.094;7.970;2023-01-01T15:25:01;16.20;14.60
2409;DHT22;8463;48.094;7.970;2023-01-01T15:29:54;16.20;15.10
2409;DHT22;8463;48.094;7.970;2023-01-01T15:32:39;16.20;15.00
2409;DHT22;8463;48.094;7.970;2023-01-01T15:35:17;15.80;14.70
2409;DHT22;8463;48.094;7.970;2023-01-01T15:37:47;15.70;15.40
2409;DHT22;8463;48.094;7.970;2023-01-01T15:42:40;15.70;14.90
2409;DHT22;8463;48.094;7.970;2023-01-01T15:47:51;15.20;15.70
2409;DHT22;8463;48.094;7.970;2023-01-01T15:50:24;15.10;17.50
2409;DHT22;8463;48.094;7.970;2023-01-01T15:53:06;15.00;19.10
2409;DHT22;8463;48.094;7.970;2023-01-01T15:55:34;15.00;20.00
2409;DHT22;8463;48.094;7.970;2023-01-01T15:58:02;15.00;19.50
2409;DHT22;8463;48.094;7.970;2023-01-01T16:00:30;14.90;20.10
2409;DHT22;8463;48.094;7.970;2023-01-01T16:03:17;14.80;19.70
2409;DHT22;8463;48.094;7.970;2023-01-01T16:05:52;14.80;19.70
2409;DHT22;8463;48.094;7.970;2023-01-01T16:08:19;14.70;19.40
2409;DHT22;8463;48.094;7.970;2023-01-01T16:10:46;14.60;19.30
2409;DHT22;8463;48.094;7.970;2023-01-01T16:13:13;14.40;19.70
2409;DHT22;8463;48.094;7.970;2023-01-01T16:18:18;14.20;20.10
2409;DHT22;8463;48.094;7.970;2023-01-01T16:20:45;14.10;21.20
2409;DHT22;8463;48.094;7.970;2023-01-01T16:23:11;14.00;21.10
2409;DHT22;8463;48.094;7.970;2023-01-01T16:25:37;14.00;21.10
2409;DHT22;8463;48.094;7.970;2023-01-01T16:28:03;14.00;21.10
2409;DHT22;8463;48.094;7.970;2023-01-01T16:30:30;13.90;21.00
2409;DHT22;8463;48.094;7.970;2023-01-01T16:32:56;14.00;21.10
2409;DHT22;8463;48.094;7.970;2023-01-01T16:35:22;13.90;20.20
2409;DHT22;8463;48.094;7.970;2023-01-01T16:37:50;13.80;21.00
2409;DHT22;8463;48.094;7.970;2023-01-01T16:40:15;13.70;21.80
2409;DHT22;8463;48.094;7.970;2023-01-01T16:42:41;13.70;21.10
2409;DHT22;8463;48.094;7.970;2023-01-01T16:45:09;13.70;20.90
2409;DHT22;8463;48.094;7.970;2023-01-01T16:47:36;13.60;21.50
2409;DHT22;8463;48.094;7.970;2023-01-01T16:50:02;13.70;21.30
2409;DHT22;8463;48.094;7.970;2023-01-01T16:52:28;13.50;21.90
2409;DHT22;8463;48.094;7.970;2023-01-01T16:54:54;13.40;21.70
2409;DHT22;8463;48.094;7.970;2023-01-01T16:57:19;13.40;22.00
2409;DHT22;8463;48.094;7.970;2023-01-01T16:59:45;13.40;21.60
2409;DHT22;8463;48.094;7.970;2023-01-01T17:02:10;13.30;22.10
2409;DHT22;8463;48.094;7.970;2023-01-01T17:04:36;13.10;22.50
2409;DHT22;8463;48.094;7.970;2023-01-01T17:07:02;12.90;23.90
2409;DHT22;8463;48.094;7.970;2023-01-01T17:09:27;12.90;24.10
2409;DHT22;8463;48.094;7.970;2023-01-01T17:11:53;12.80;24.40
2409;DHT22;8463;48.094;7.970;2023-01-01T17:14:19;12.80;24.00
2409;DHT22;8463;48.094;7.970;2023-01-01T17:16:44;12.80;23.80
2409;DHT22;8463;48.094;7.970;2023-01-01T17:19:10;12.70;23.70
2409;DHT22;8463;48.094;7.970;2023-01-01T17:21:39;12.60;23.90
2409;DHT22;8463;48.094;7.970;2023-01-01T17:24:05;12.50;24.50
2409;DHT22;8463;48.094;7.970;2023-01-01T17:26:31;12.30;26.00
2409;DHT22;8463;48.094;7.970;2023-01-01T17:28:56;12.30;25.80
2409;DHT22;8463;48.094;7.970;2023-01-01T17:31:22;12.20;25.90
2409;DHT22;8463;48.094;7.970;2023-01-01T17:33:48;12.20;26.00
2409;DHT22;8463;48.094;7.970;2023-01-01T17:36:15;12.20;25.70
2409;DHT22;8463;48.094;7.970;2023-01-01T17:38:41;12.20;25.40
2409;DHT22;8463;48.094;7.970;2023-01-01T17:41:11;12.20;25.50
2409;DHT22;8463;48.094;7.970;2023-01-01T17:43:42;12.10;25.60
2409;DHT22;8463;48.094;7.970;2023-01-01T17:46:29;11.90;26.60
2409;DHT22;8463;48.094;7.970;2023-01-01T17:49:00;11.90;27.00
2409;DHT22;8463;48.094;7.970;2023-01-01T17:51:27;11.90;27.00
2409;DHT22;8463;48.094;7.970;2023-01-01T17:53:54;11.90;27.00
2409;DHT22;8463;48.094;7.970;2023-01-01T17:56:21;11.80;27.30
2409;DHT22;8463;48.094;7.970;2023-01-01T17:58:49;11.60;27.90
2409;DHT22;8463;48.094;7.970;2023-01-01T18:03:48;11.50;29.00
2409;DHT22;8463;48.094;7.970;2023-01-01T18:06:13;11.60;29.00
2409;DHT22;8463;48.094;7.970;2023-01-01T18:08:39;11.50;28.50
2409;DHT22;8463;48.094;7.970;2023-01-01T18:11:05;11.60;28.60
2409;DHT22;8463;48.094;7.970;2023-01-01T18:13:31;11.60;28.40
2409;DHT22;8463;48.094;7.970;2023-01-01T18:16:01;11.30;30.00
2409;DHT22;8463;48.094;7.970;2023-01-01T18:18:28;11.30;29.60
2409;DHT22;8463;48.094;7.970;2023-01-01T18:21:12;11.40;30.00
2409;DHT22;8463;48.094;7.970;2023-01-01T18:23:39;11.30;29.10
2409;DHT22;8463;48.094;7.970;2023-01-01T18:26:07;11.20;30.70
2409;DHT22;8463;48.094;7.970;2023-01-01T18:28:33;11.20;29.80
2409;DHT22;8463;48.094;7.970;2023-01-01T18:31:07;11.20;30.00
2409;DHT22;8463;48.094;7.970;2023-01-01T18:33:36;11.30;29.50
2409;DHT22;8463;48.094;7.970;2023-01-01T18:36:04;11.30;29.50